Time;durP1;ratioP1;P1;durP2;ratioP2;P2;SDS_P1;SDS_P2;PMS_P1;PMS_P2;Temp;Humidity;BMP_temperature;BMP_pressure;BME280_temperature;BME280_humidity;BME280_pressure;Samples;Min_cycle;Max_cycle;Signal;HPM_P1;HPM_P2
2023/06/22 00:04:58;;;;;;;;;;;;;;;19.19;100.00;101825.34;12927711;23;19920;-75
2023/06/22 00:10:00;;;;;;;;;;;;;;;19.11;100.00;101820.63;12928823;23;19950;-75
2023/06/22 00:15:02;;;;;;;;;;;;;;;19.01;100.00;101819.66;12927933;23;20002;-75
2023/06/22 00:20:05;;;;;;;;;;;;;;;19.17;100.00;101816.66;12928024;23;20003;-75
2023/06/22 00:25:08;;;;;;;;;;;;;;;19.19;100.00;101806.75;12928233;23;19987;-75
2023/06/22 00:30:10;;;;;;;;;;;;;;;19.10;100.00;101811.81;12928384;23;19924;-75
2023/06/22 00:35:13;;;;;;;;;;;;;;;18.47;100.00;101829.81;12901396;23;19927;-75
2023/06/22 00:40:17;;;;;;;;;;;;;;;18.72;100.00;101820.03;12926486;23;20329;-75
2023/06/22 00:45:19;;;;;;;;;;;;;;;18.45;100.00;101830.91;12927401;23;19994;-75
2023/06/22 00:50:22;;;;;;;;;;;;;;;18.55;100.00;101826.63;12926568;23;20002;-75
2023/06/22 00:55:25;;;;;;;;;;;;;;;18.66;100.00;101824.00;12900606;23;19954;-75
2023/06/22 01:00:28;;;;;;;;;;;;;;;18.47;100.00;101819.22;12926725;23;19923;-75
2023/06/22 01:05:30;;;;;;;;;;;;;;;18.35;100.00;101817.50;12900378;23;19994;-75
2023/06/22 01:10:47;;;;;;;;;;;;;;;18.28;100.00;101817.09;12927505;23;20332;-75
2023/06/22 01:15:57;;;;;;;;;;;;;;;18.15;100.00;101811.84;12899712;23;20003;-75
2023/06/22 01:21:00;;;;;;;;;;;;;;;18.36;100.00;101803.28;12899327;23;20332;-75
2023/06/22 01:26:22;;;;;;;;;;;;;;;18.38;100.00;101796.91;12900252;23;19927;-75
2023/06/22 01:31:25;;;;;;;;;;;;;;;18.28;100.00;101803.00;12899458;23;19919;-75
2023/06/22 01:36:28;;;;;;;;;;;;;;;18.08;100.00;101804.47;12900312;23;19926;-74
2023/06/22 01:41:30;;;;;;;;;;;;;;;17.99;100.00;101803.34;12899029;23;19930;-74
2023/06/22 01:46:33;;;;;;;;;;;;;;;18.18;100.00;101798.38;12926025;23;19986;-74
2023/06/22 01:51:35;;;;;;;;;;;;;;;18.03;100.00;101803.97;12899451;23;20329;-74
2023/06/22 01:56:38;;;;;;;;;;;;;;;18.01;100.00;101796.97;12925131;23;20244;-74
2023/06/22 02:02:09;;;;;;;;;;;;;;;17.96;100.00;101799.09;12873396;23;20018;-74
2023/06/22 02:07:13;;;;;;;;;;;;;;;17.96;100.00;101793.81;12900758;23;19919;-74
2023/06/22 02:12:17;;;;;;;;;;;;;;;17.94;100.00;101786.94;12899018;23;19975;-74
2023/06/22 02:17:19;;;;;;;;;;;;;;;17.86;100.00;101792.75;12899308;23;19920;-74
2023/06/22 02:22:21;;;;;;;;;;;;;;;17.91;100.00;101782.69;12898283;23;19951;-74
2023/06/22 02:27:24;;;;;;;;;;;;;;;17.77;100.00;101778.38;12925115;23;19920;-74
2023/06/22 02:32:26;;;;;;;;;;;;;;;17.89;100.00;101784.63;12925646;23;19919;-74
2023/06/22 02:37:29;;;;;;;;;;;;;;;17.86;100.00;101773.38;12925947;23;19919;-74
2023/06/22 02:42:31;;;;;;;;;;;;;;;17.80;100.00;101775.53;12897533;23;19958;-74
2023/06/22 02:47:33;;;;;;;;;;;;;;;18.07;100.00;101779.78;12898481;23;19975;-74
2023/06/22 02:52:36;;;;;;;;;;;;;;;17.78;100.00;101769.47;12898883;23;19919;-74
2023/06/22 02:57:43;;;;;;;;;;;;;;;17.72;100.00;101766.41;12899174;23;19986;-74
2023/06/22 03:02:46;;;;;;;;;;;;;;;17.82;100.00;101763.00;12925326;23;19920;-74
2023/06/22 03:07:48;;;;;;;;;;;;;;;17.83;100.00;101758.53;12925701;23;19990;-74
2023/06/22 03:12:50;;;;;;;;;;;;;;;17.68;100.00;101762.31;12926066;23;19995;-74
2023/06/22 03:17:53;;;;;;;;;;;;;;;17.86;100.00;101757.47;12929744;23;19923;-74
2023/06/22 03:22:55;;;;;;;;;;;;;;;17.87;100.00;101765.34;12928598;23;19934;-74
2023/06/22 03:27:58;;;;;;;;;;;;;;;17.59;100.00;101743.47;12928866;23;19952;-74
2023/06/22 03:33:00;;;;;;;;;;;;;;;17.72;100.00;101740.78;12929168;23;19924;-74
2023/06/22 03:38:02;;;;;;;;;;;;;;;17.61;100.00;101746.84;12929336;23;19923;-74
2023/06/22 03:43:04;;;;;;;;;;;;;;;17.58;100.00;101759.47;12928157;23;19998;-74
2023/06/22 03:48:07;;;;;;;;;;;;;;;17.37;100.00;101751.28;12929269;23;19926;-74
2023/06/22 03:53:10;;;;;;;;;;;;;;;17.49;100.00;101742.44;12928836;23;19947;-74
2023/06/22 03:58:12;;;;;;;;;;;;;;;17.36;100.00;101742.47;12902448;23;19919;-74
2023/06/22 04:03:15;;;;;;;;;;;;;;;17.61;100.00;101736.25;12928739;23;20002;-74
2023/06/22 04:08:17;;;;;;;;;;;;;;;17.59;100.00;101742.63;12902319;23;19919;-74
2023/06/22 04:13:20;;;;;;;;;;;;;;;17.69;100.00;101743.66;12901741;23;19958;-74
2023/06/22 04:18:22;;;;;;;;;;;;;;;17.57;100.00;101739.25;12927344;23;19919;-74
2023/06/22 04:23:24;;;;;;;;;;;;;;;17.78;100.00;101742.97;12928475;23;19954;-74
2023/06/22 04:28:26;;;;;;;;;;;;;;;17.77;100.00;101741.31;12900106;23;20293;-74
2023/06/22 04:33:29;;;;;;;;;;;;;;;18.24;100.00;101733.47;12927039;23;19942;-73
2023/06/22 04:38:33;;;;;;;;;;;;;;;18.07;100.00;101739.19;12927227;23;19962;-73
2023/06/22 04:43:35;;;;;;;;;;;;;;;18.05;100.00;101741.09;12927332;23;20278;-73
2023/06/22 04:48:37;;;;;;;;;;;;;;;18.20;100.00;101732.00;12927279;23;19947;-74
2023/06/22 04:53:41;;;;;;;;;;;;;;;18.38;100.00;101725.31;12927463;23;19983;-74
2023/06/22 04:58:43;;;;;;;;;;;;;;;18.60;100.00;101715.72;12927184;23;19999;-74
2023/06/22 05:03:45;;;;;;;;;;;;;;;18.57;100.00;101718.59;12926952;23;20385;-74
2023/06/22 05:08:47;;;;;;;;;;;;;;;18.72;100.00;101728.03;12927593;23;19920;-74
2023/06/22 05:13:50;;;;;;;;;;;;;;;18.92;100.00;101728.34;12900483;23;19920;-74
2023/06/22 05:18:53;;;;;;;;;;;;;;;19.02;100.00;101723.16;12926426;23;19919;-74
2023/06/22 05:23:59;;;;;;;;;;;;;;;19.16;100.00;101722.88;12900842;23;19970;-74
2023/06/22 05:29:02;;;;;;;;;;;;;;;19.10;100.00;101723.41;12900284;23;20007;-74
2023/06/22 05:34:04;;;;;;;;;;;;;;;19.49;100.00;101724.66;12923522;23;19919;-74
2023/06/22 05:39:13;;;;;;;;;;;;;;;19.38;100.00;101732.63;12897578;23;19926;-74
2023/06/22 05:44:15;;;;;;;;;;;;;;;19.55;100.00;101744.59;12900102;23;19986;-74
2023/06/22 05:49:18;;;;;;;;;;;;;;;19.87;100.00;101751.78;12925973;23;20404;-74
2023/06/22 05:54:20;;;;;;;;;;;;;;;19.90;100.00;101740.06;12899362;23;19955;-74
2023/06/22 05:59:22;;;;;;;;;;;;;;;20.11;100.00;101738.28;12925566;23;20408;-74
2023/06/22 06:04:24;;;;;;;;;;;;;;;19.84;100.00;101739.59;12925728;23;20313;-73
2023/06/22 06:09:27;;;;;;;;;;;;;;;20.13;100.00;101735.50;12926377;23;19919;-75
2023/06/22 06:14:29;;;;;;;;;;;;;;;20.47;100.00;101730.00;12925069;23;19998;-74
2023/06/22 06:19:31;;;;;;;;;;;;;;;20.81;99.06;101727.97;12924848;23;19920;-74
2023/06/22 06:24:34;;;;;;;;;;;;;;;20.65;100.00;101727.63;12919872;23;19998;-74
2023/06/22 06:29:36;;;;;;;;;;;;;;;20.90;97.73;101716.53;12921252;23;19919;-74
2023/06/22 06:34:38;;;;;;;;;;;;;;;20.60;98.95;101720.84;12924314;23;20360;-74
2023/06/22 06:39:41;;;;;;;;;;;;;;;21.31;94.72;101714.72;12921744;23;19946;-74
2023/06/22 06:44:45;;;;;;;;;;;;;;;21.54;93.12;101714.53;12923371;23;19932;-74
2023/06/22 06:49:47;;;;;;;;;;;;;;;21.87;93.19;101707.97;12902359;23;19920;-74
2023/06/22 06:54:51;;;;;;;;;;;;;;;21.19;94.18;101707.00;12930944;23;20248;-74
2023/06/22 06:59:53;;;;;;;;;;;;;;;21.44;91.92;101695.81;12931469;23;19969;-74
2023/06/22 07:04:56;;;;;;;;;;;;;;;21.83;89.91;101697.72;12931833;23;19920;-74
2023/06/22 07:09:58;;;;;;;;;;;;;;;21.40;93.73;101697.09;12931927;23;19946;-74
2023/06/22 07:15:02;;;;;;;;;;;;;;;21.52;93.48;101696.03;12931310;23;19924;-74
2023/06/22 07:20:13;;;;;;;;;;;;;;;22.33;90.96;101691.41;12904406;23;19919;-74
2023/06/22 07:25:16;;;;;;;;;;;;;;;22.18;89.13;101682.97;12931466;23;19998;-74
2023/06/22 07:30:19;;;;;;;;;;;;;;;22.52;85.67;101678.00;12930860;23;20276;-71
2023/06/22 07:35:21;;;;;;;;;;;;;;;22.48;88.42;101670.44;12931014;23;19947;-71
2023/06/22 07:40:23;;;;;;;;;;;;;;;22.06;91.73;101680.47;12930323;23;20241;-71
2023/06/22 07:45:25;;;;;;;;;;;;;;;22.40;90.47;101669.34;12930773;23;20275;-71
2023/06/22 07:50:28;;;;;;;;;;;;;;;22.41;89.43;101673.69;12929840;23;20338;-71
2023/06/22 07:55:30;;;;;;;;;;;;;;;22.44;90.92;101672.53;12932236;23;19926;-71
2023/06/22 08:00:33;;;;;;;;;;;;;;;22.49;90.67;101669.44;12928681;23;19951;-71
2023/06/22 08:05:35;;;;;;;;;;;;;;;22.40;87.13;101656.00;12928577;23;19986;-71
2023/06/22 08:10:38;;;;;;;;;;;;;;;22.95;86.15;101657.88;12901153;23;19927;-71
2023/06/22 08:15:40;;;;;;;;;;;;;;;23.56;83.79;101629.66;12928254;23;19991;-71
2023/06/22 08:20:42;;;;;;;;;;;;;;;24.35;76.90;101623.59;12927298;23;20006;-71
2023/06/22 08:25:45;;;;;;;;;;;;;;;24.70;77.01;101617.28;12900579;23;19919;-71
2023/06/22 08:30:47;;;;;;;;;;;;;;;24.78;74.66;101611.09;12901903;23;19920;-71
2023/06/22 08:35:50;;;;;;;;;;;;;;;25.70;69.72;101609.28;12900895;23;19919;-71
2023/06/22 08:40:52;;;;;;;;;;;;;;;25.27;70.54;101610.41;12927159;23;19951;-70
2023/06/22 08:45:54;;;;;;;;;;;;;;;25.32;69.53;101608.09;12876175;23;19926;-70
2023/06/22 08:50:56;;;;;;;;;;;;;;;24.14;72.85;101600.75;12927995;23;19998;-74
2023/06/22 08:55:59;;;;;;;;;;;;;;;25.38;71.89;101592.16;12926906;23;20337;-74
2023/06/22 09:01:01;;;;;;;;;;;;;;;25.44;71.75;101596.03;12926941;23;19978;-74
2023/06/22 09:06:03;;;;;;;;;;;;;;;26.24;68.85;101583.72;12926909;23;20399;-74
2023/06/22 09:11:05;;;;;;;;;;;;;;;25.21;69.28;101582.41;12924879;23;19970;-74
2023/06/22 09:16:08;;;;;;;;;;;;;;;25.97;69.47;101574.25;12922534;23;19987;-74
2023/06/22 09:21:10;;;;;;;;;;;;;;;26.47;68.40;101568.53;12895662;23;20347;-74
2023/06/22 09:26:12;;;;;;;;;;;;;;;25.64;70.68;101575.09;12923716;23;19987;-74
2023/06/22 09:31:16;;;;;;;;;;;;;;;25.00;71.30;101567.66;12926774;23;19926;-74
2023/06/22 09:36:18;;;;;;;;;;;;;;;24.79;71.29;101565.41;12927031;23;19931;-74
2023/06/22 09:41:20;;;;;;;;;;;;;;;24.67;70.29;101566.72;12850258;22;19951;-68
2023/06/22 09:46:25;;;;;;;;;;;;;;;24.66;72.04;101565.03;12863573;23;19991;-68
2023/06/22 09:51:27;;;;;;;;;;;;;;;24.60;72.59;101565.69;12837064;23;20364;-69
2023/06/22 09:56:30;;;;;;;;;;;;;;;24.92;72.23;101564.94;12837240;23;19927;-69
2023/06/22 10:01:32;;;;;;;;;;;;;;;24.61;72.77;101568.22;12863352;23;19930;-69
2023/06/22 10:06:34;;;;;;;;;;;;;;;24.52;74.17;101558.44;12863019;23;20304;-69
2023/06/22 10:11:37;;;;;;;;;;;;;;;24.13;74.31;101566.94;12863715;23;19920;-68
2023/06/22 10:16:40;;;;;;;;;;;;;;;24.54;73.70;101555.59;12863097;23;19921;-68
2023/06/22 10:21:43;;;;;;;;;;;;;;;24.08;76.09;101559.41;12862030;23;20329;-68
2023/06/22 10:26:45;;;;;;;;;;;;;;;24.42;74.64;101560.41;12863431;23;19943;-68
2023/06/22 10:31:47;;;;;;;;;;;;;;;24.38;75.89;101559.06;12863403;23;19926;-68
2023/06/22 10:36:49;;;;;;;;;;;;;;;24.08;78.05;101556.72;12836603;23;19920;-69
2023/06/22 10:41:52;;;;;;;;;;;;;;;24.25;80.95;101543.44;12861929;23;19924;-69
2023/06/22 10:46:54;;;;;;;;;;;;;;;24.00;83.69;101543.31;12812354;23;19940;-68
2023/06/22 10:51:57;;;;;;;;;;;;;;;23.81;83.92;101533.63;12862498;23;19923;-68
2023/06/22 10:57:00;;;;;;;;;;;;;;;23.27;80.36;101535.56;12862266;23;20241;-69
2023/06/22 11:02:02;;;;;;;;;;;;;;;23.13;84.06;101528.91;12836119;23;19924;-69
2023/06/22 11:07:05;;;;;;;;;;;;;;;23.43;81.71;101535.69;12861784;23;19970;-69
2023/06/22 11:12:07;;;;;;;;;;;;;;;23.41;78.18;101531.50;12835925;23;20310;-69
2023/06/22 11:17:09;;;;;;;;;;;;;;;23.51;81.01;101534.91;12861405;23;19939;-68
2023/06/22 11:22:11;;;;;;;;;;;;;;;23.52;78.26;101545.47;12861649;23;20321;-68
2023/06/22 11:27:14;;;;;;;;;;;;;;;23.39;79.39;101570.91;12862065;23;19919;-69
2023/06/22 11:32:16;;;;;;;;;;;;;;;23.15;83.38;101575.03;12862734;23;19986;-69
2023/06/22 11:37:18;;;;;;;;;;;;;;;23.05;93.78;101571.53;12865441;23;19978;-69
2023/06/22 11:42:20;;;;;;;;;;;;;;;22.63;98.04;101552.41;12865780;23;19950;-69
2023/06/22 11:47:23;;;;;;;;;;;;;;;22.48;100.00;101559.22;12836555;23;20006;-70
2023/06/22 11:52:27;;;;;;;;;;;;;;;22.49;100.00;101558.22;12860541;23;19927;-69
2023/06/22 11:57:29;;;;;;;;;;;;;;;22.33;100.00;101561.53;12860754;23;19924;-69
2023/06/22 12:02:32;;;;;;;;;;;;;;;21.99;100.00;101562.03;12837152;23;19926;-69
2023/06/22 12:07:34;;;;;;;;;;;;;;;21.82;100.00;101573.44;12865306;23;19943;-67
2023/06/22 12:12:36;;;;;;;;;;;;;;;21.22;100.00;101610.84;12865988;23;19920;-68
2023/06/22 12:17:38;;;;;;;;;;;;;;;21.27;100.00;101608.63;12865006;23;20007;-68
2023/06/22 12:22:41;;;;;;;;;;;;;;;21.59;100.00;101572.91;12865748;23;19920;-68
2023/06/22 12:27:43;;;;;;;;;;;;;;;21.56;100.00;101551.88;12838602;23;20018;-69
2023/06/22 12:32:45;;;;;;;;;;;;;;;21.30;100.00;101552.38;12864841;23;19919;-70
2023/06/22 12:37:48;;;;;;;;;;;;;;;21.68;100.00;101516.09;12865176;23;19927;-69
2023/06/22 12:42:50;;;;;;;;;;;;;;;21.52;100.00;101524.69;12841147;23;20369;-69
2023/06/22 12:47:52;;;;;;;;;;;;;;;21.68;100.00;101516.91;12865114;23;19920;-69
2023/06/22 12:52:54;;;;;;;;;;;;;;;21.41;100.00;101506.97;12865234;23;19939;-68
2023/06/22 12:57:57;;;;;;;;;;;;;;;20.76;100.00;101504.88;12865065;23;19958;-69
2023/06/22 13:02:59;;;;;;;;;;;;;;;20.90;100.00;101506.28;12864953;23;19951;-69
2023/06/22 13:08:01;;;;;;;;;;;;;;;20.54;100.00;101499.72;12864882;23;19947;-68
2023/06/22 13:13:04;;;;;;;;;;;;;;;20.80;100.00;101492.13;12864849;23;19946;-68
2023/06/22 13:18:07;;;;;;;;;;;;;;;21.23;100.00;101480.25;12863933;23;19924;-68
2023/06/22 13:23:09;;;;;;;;;;;;;;;21.54;100.00;101463.25;12863861;23;19920;-68
2023/06/22 13:28:13;;;;;;;;;;;;;;;21.81;100.00;101451.81;12864607;23;19991;-68
2023/06/22 13:33:28;;;;;;;;;;;;;;;22.21;100.00;101446.16;12864500;23;19919;-68
2023/06/22 13:38:32;;;;;;;;;;;;;;;22.02;100.00;101430.25;12864392;23;19926;-68
2023/06/22 13:43:34;;;;;;;;;;;;;;;21.67;100.00;101434.44;12863136;23;20404;-68
2023/06/22 13:48:36;;;;;;;;;;;;;;;21.59;100.00;101429.03;12864190;23;19968;-68
2023/06/22 13:53:38;;;;;;;;;;;;;;;21.83;100.00;101426.69;12863244;23;19954;-68
2023/06/22 13:58:40;;;;;;;;;;;;;;;21.66;100.00;101403.47;12862721;23;19926;-69
2023/06/22 14:03:45;;;;;;;;;;;;;;;21.53;100.00;101411.78;12862635;23;20329;-68
2023/06/22 14:08:47;;;;;;;;;;;;;;;21.06;100.00;101425.03;12862794;23;19947;-68
2023/06/22 14:13:49;;;;;;;;;;;;;;;21.05;100.00;101429.50;12864124;23;19959;-67
2023/06/22 14:18:52;;;;;;;;;;;;;;;20.82;100.00;101422.81;12862825;23;20003;-67
2023/06/22 14:23:56;;;;;;;;;;;;;;;20.56;100.00;101423.28;12863374;23;19926;-67
2023/06/22 14:28:58;;;;;;;;;;;;;;;20.55;100.00;101433.09;12862925;23;20337;-68
2023/06/22 14:34:02;;;;;;;;;;;;;;;20.71;100.00;101434.41;12863308;23;19926;-70
2023/06/22 14:39:04;;;;;;;;;;;;;;;20.58;100.00;101432.81;12812715;23;19924;-68
2023/06/22 14:44:07;;;;;;;;;;;;;;;20.59;100.00;101417.69;12851320;23;20381;-68
2023/06/22 14:49:09;;;;;;;;;;;;;;;20.63;100.00;101411.16;12863169;23;19920;-68
2023/06/22 14:54:11;;;;;;;;;;;;;;;20.63;100.00;101403.19;12862420;23;19920;-66
2023/06/22 14:59:13;;;;;;;;;;;;;;;20.06;100.00;101404.75;12863112;23;19948;-67
2023/06/22 15:04:15;;;;;;;;;;;;;;;20.12;100.00;101402.34;12861508;23;19933;-68
2023/06/22 15:09:18;;;;;;;;;;;;;;;20.40;100.00;101375.97;12860468;23;20257;-68
2023/06/22 15:14:20;;;;;;;;;;;;;;;20.11;100.00;101365.28;12867082;23;19979;-67
2023/06/22 15:19:22;;;;;;;;;;;;;;;19.81;100.00;101362.53;12866319;23;19950;-67
2023/06/22 15:24:24;;;;;;;;;;;;;;;19.68;100.00;101377.84;12867033;23;19986;-68
2023/06/22 15:29:27;;;;;;;;;;;;;;;19.80;100.00;101375.97;12866422;23;19990;-68
2023/06/22 15:34:29;;;;;;;;;;;;;;;19.84;100.00;101375.56;12866081;23;19970;-67
2023/06/22 15:39:31;;;;;;;;;;;;;;;19.68;100.00;101369.88;12890364;23;19954;-67
2023/06/22 15:44:33;;;;;;;;;;;;;;;19.29;100.00;101380.31;12865775;23;19920;-66
2023/06/22 15:49:36;;;;;;;;;;;;;;;19.57;100.00;101388.53;12865738;23;20309;-67
2023/06/22 15:54:38;;;;;;;;;;;;;;;19.72;100.00;101392.56;12840158;23;19955;-67
2023/06/22 15:59:40;;;;;;;;;;;;;;;19.53;100.00;101395.94;12866407;23;19924;-67
2023/06/22 16:04:42;;;;;;;;;;;;;;;19.87;100.00;101385.09;12839868;23;19948;-67
2023/06/22 16:09:45;;;;;;;;;;;;;;;20.07;100.00;101372.69;12865286;23;20353;-67
2023/06/22 16:14:47;;;;;;;;;;;;;;;19.92;100.00;101366.06;12839127;23;19920;-67
2023/06/22 16:19:54;;;;;;;;;;;;;;;19.97;100.00;101355.88;12865425;23;19974;-67
2023/06/22 16:24:58;;;;;;;;;;;;;;;19.80;100.00;101357.34;12865070;23;19999;-67
2023/06/22 16:30:00;;;;;;;;;;;;;;;19.66;100.00;101350.56;12865700;23;19987;-66
2023/06/22 16:35:02;;;;;;;;;;;;;;;19.85;100.00;101363.97;12865644;23;19987;-67
2023/06/22 16:40:05;;;;;;;;;;;;;;;19.57;100.00;101384.09;12865101;23;19966;-67
2023/06/22 16:45:07;;;;;;;;;;;;;;;19.79;100.00;101379.59;12864643;23;20316;-66
2023/06/22 16:50:09;;;;;;;;;;;;;;;19.70;100.00;101391.81;12865283;23;19983;-66
2023/06/22 16:55:12;;;;;;;;;;;;;;;19.93;100.00;101397.81;12865235;23;19983;-67
2023/06/22 17:00:14;;;;;;;;;;;;;;;19.71;100.00;101408.63;12838710;23;19924;-67
2023/06/22 17:05:17;;;;;;;;;;;;;;;19.75;100.00;101424.16;12837940;23;19990;-67
2023/06/22 17:10:20;;;;;;;;;;;;;;;19.80;100.00;101408.69;12838652;23;20325;-67
2023/06/22 17:15:22;;;;;;;;;;;;;;;19.78;100.00;101420.41;12864923;23;19920;-67
2023/06/22 17:20:24;;;;;;;;;;;;;;;19.73;100.00;101406.66;12838349;23;20007;-67
2023/06/22 17:25:30;;;;;;;;;;;;;;;19.81;100.00;101404.22;12837549;23;19954;-67
2023/06/22 17:30:32;;;;;;;;;;;;;;;20.00;100.00;101382.19;12838321;23;19919;-67
2023/06/22 17:35:45;;;;;;;;;;;;;;;19.83;100.00;101386.31;12864224;23;19978;-67
2023/06/22 17:40:47;;;;;;;;;;;;;;;19.80;100.00;101386.59;12836893;23;20344;-67
2023/06/22 17:45:49;;;;;;;;;;;;;;;19.66;100.00;101396.56;12864234;23;19950;-67
2023/06/22 17:50:52;;;;;;;;;;;;;;;19.84;100.00;101388.00;12863375;23;19920;-67
2023/06/22 17:55:54;;;;;;;;;;;;;;;19.64;100.00;101390.53;12864249;23;19920;-67
2023/06/22 18:00:56;;;;;;;;;;;;;;;19.53;100.00;101387.97;12863955;23;19926;-67
2023/06/22 18:05:58;;;;;;;;;;;;;;;19.85;100.00;101403.81;12863780;23;20222;-67
2023/06/22 18:11:00;;;;;;;;;;;;;;;19.83;100.00;101403.09;12812078;23;20412;-67
2023/06/22 18:16:03;;;;;;;;;;;;;;;19.65;100.00;101404.66;12863772;23;19919;-67
2023/06/22 18:21:05;;;;;;;;;;;;;;;19.76;100.00;101407.25;12836355;23;19924;-67
2023/06/22 18:26:08;;;;;;;;;;;;;;;19.49;100.00;101413.13;12863489;23;19987;-67
2023/06/22 18:31:10;;;;;;;;;;;;;;;19.61;100.00;101397.94;12837206;23;19939;-67
2023/06/22 18:36:12;;;;;;;;;;;;;;;19.72;100.00;101397.88;12862668;23;19951;-67
2023/06/22 18:41:22;;;;;;;;;;;;;;;19.65;100.00;101405.53;12834558;23;20392;-67
2023/06/22 18:46:37;;;;;;;;;;;;;;;19.54;100.00;101405.59;12835055;23;19950;-67
2023/06/22 18:51:50;;;;;;;;;;;;;;;19.27;100.00;101392.88;12834974;23;19927;-67
2023/06/22 18:56:53;;;;;;;;;;;;;;;19.29;100.00;101394.41;12835531;23;20424;-67
2023/06/22 19:01:59;;;;;;;;;;;;;;;19.38;100.00;101405.22;12862117;23;19930;-67
2023/06/22 19:07:01;;;;;;;;;;;;;;;19.33;100.00;101404.78;12835489;23;20003;-67
2023/06/22 19:12:18;;;;;;;;;;;;;;;19.25;100.00;101419.53;12861417;23;21727;-67
2023/06/22 19:17:21;;;;;;;;;;;;;;;19.39;100.00;101438.78;12863052;23;19990;-67
2023/06/22 19:22:25;;;;;;;;;;;;;;;19.31;100.00;101421.66;12861203;23;20317;-67
2023/06/22 19:27:29;;;;;;;;;;;;;;;19.35;100.00;101411.66;12835685;23;20342;-67
2023/06/22 19:32:31;;;;;;;;;;;;;;;19.24;100.00;101417.84;12863098;23;19943;-67
2023/06/22 19:37:34;;;;;;;;;;;;;;;19.16;100.00;101422.97;12834476;23;19943;-67
2023/06/22 19:42:38;;;;;;;;;;;;;;;19.02;100.00;101434.75;12859073;23;20003;-67
2023/06/22 19:47:40;;;;;;;;;;;;;;;18.90;100.00;101444.56;12861549;23;19986;-67
2023/06/22 19:52:45;;;;;;;;;;;;;;;18.93;100.00;101449.63;12835935;23;19920;-68
2023/06/22 19:57:50;;;;;;;;;;;;;;;18.87;100.00;101462.53;12837347;23;19998;-68
2023/06/22 20:02:53;;;;;;;;;;;;;;;18.75;100.00;101475.78;12865428;23;19998;-68
2023/06/22 20:07:55;;;;;;;;;;;;;;;18.38;100.00;101478.75;12839819;23;19924;-67
2023/06/22 20:12:57;;;;;;;;;;;;;;;18.54;100.00;101490.78;12865663;23;19991;-67
2023/06/22 20:17:59;;;;;;;;;;;;;;;18.41;100.00;101506.84;12865900;23;19999;-67
2023/06/22 20:23:02;;;;;;;;;;;;;;;18.54;100.00;101506.69;12865391;23;19919;-67
2023/06/22 20:28:05;;;;;;;;;;;;;;;18.29;100.00;101511.31;12865798;23;19920;-67
2023/06/22 20:33:14;;;;;;;;;;;;;;;18.32;100.00;101526.97;12864710;23;19951;-67
2023/06/22 20:38:17;;;;;;;;;;;;;;;18.23;100.00;101535.66;12863280;23;19987;-67
2023/06/22 20:43:21;;;;;;;;;;;;;;;17.96;100.00;101538.63;12863587;23;20397;-67
2023/06/22 20:48:24;;;;;;;;;;;;;;;17.96;100.00;101547.41;12839041;23;19920;-67
2023/06/22 20:53:39;;;;;;;;;;;;;;;18.01;100.00;101563.81;12841262;23;19920;-67
2023/06/22 20:58:41;;;;;;;;;;;;;;;18.26;100.00;101556.63;12864748;23;19986;-67
2023/06/22 21:03:43;;;;;;;;;;;;;;;18.20;100.00;101555.25;12837870;23;20389;-67
2023/06/22 21:08:46;;;;;;;;;;;;;;;17.76;100.00;101561.31;12863354;23;19924;-67
2023/06/22 21:13:50;;;;;;;;;;;;;;;17.56;100.00;101562.81;12864777;23;19955;-67
2023/06/22 21:18:53;;;;;;;;;;;;;;;17.31;100.00;101569.09;12864184;23;19919;-66
2023/06/22 21:23:56;;;;;;;;;;;;;;;17.64;100.00;101587.75;12864585;23;19966;-66
2023/06/22 21:28:58;;;;;;;;;;;;;;;17.49;100.00;101578.31;12864489;23;20269;-66
2023/06/22 21:34:00;;;;;;;;;;;;;;;17.41;100.00;101576.22;12863508;23;20249;-66
2023/06/22 21:39:03;;;;;;;;;;;;;;;17.42;100.00;101577.09;12863407;23;19926;-66
2023/06/22 21:44:05;;;;;;;;;;;;;;;17.45;100.00;101576.88;12863476;23;19926;-67
2023/06/22 21:49:07;;;;;;;;;;;;;;;17.42;100.00;101582.38;12836633;23;19948;-67
2023/06/22 21:54:10;;;;;;;;;;;;;;;17.54;100.00;101578.81;12864165;23;19982;-67
2023/06/22 21:59:12;;;;;;;;;;;;;;;17.24;100.00;101566.03;12858600;23;20334;-69
2023/06/22 22:04:14;;;;;;;;;;;;;;;17.17;100.00;101576.22;12863135;23;19919;-70
2023/06/22 22:09:17;;;;;;;;;;;;;;;17.14;100.00;101580.91;12887813;23;19939;-69
2023/06/22 22:14:20;;;;;;;;;;;;;;;16.97;100.00;101605.94;12861902;23;19927;-69
2023/06/22 22:19:22;;;;;;;;;;;;;;;17.37;100.00;101603.88;12861959;23;19942;-69
2023/06/22 22:24:24;;;;;;;;;;;;;;;17.27;100.00;101614.28;12863243;23;19956;-69
2023/06/22 22:29:29;;;;;;;;;;;;;;;17.05;100.00;101620.28;12863534;23;19990;-69
2023/06/22 22:34:32;;;;;;;;;;;;;;;17.13;100.00;101635.63;12862347;23;19924;-69
2023/06/22 22:39:36;;;;;;;;;;;;;;;17.23;100.00;101633.16;12862885;23;19970;-69
2023/06/22 22:44:38;;;;;;;;;;;;;;;17.41;100.00;101652.97;12861114;23;19951;-69
2023/06/22 22:49:41;;;;;;;;;;;;;;;17.50;100.00;101672.66;12862680;23;19926;-69
2023/06/22 22:54:44;;;;;;;;;;;;;;;17.14;100.00;101668.22;12861811;23;20343;-69
2023/06/22 22:59:47;;;;;;;;;;;;;;;17.15;100.00;101677.88;12862310;23;19924;-69
2023/06/22 23:04:56;;;;;;;;;;;;;;;17.02;100.00;101680.53;12862242;23;20002;-69
2023/06/22 23:09:58;;;;;;;;;;;;;;;17.06;100.00;101684.63;12861158;23;19944;-69
2023/06/22 23:15:00;;;;;;;;;;;;;;;17.27;100.00;101685.75;12862501;23;19987;-69
2023/06/22 23:20:03;;;;;;;;;;;;;;;16.99;100.00;101686.03;12862544;23;19927;-69
2023/06/22 23:25:08;;;;;;;;;;;;;;;16.94;100.00;101688.97;12862878;23;19956;-69
2023/06/22 23:30:10;;;;;;;;;;;;;;;16.95;100.00;101692.50;12862459;23;20299;-69
2023/06/22 23:35:13;;;;;;;;;;;;;;;16.93;100.00;101683.78;12866409;23;19955;-69
2023/06/22 23:40:17;;;;;;;;;;;;;;;17.09;100.00;101681.78;12866206;23;19926;-69
2023/06/22 23:45:20;;;;;;;;;;;;;;;17.07;100.00;101675.75;12866618;23;19926;-69
2023/06/22 23:50:22;;;;;;;;;;;;;;;17.22;100.00;101692.34;12865268;23;19920;-69
2023/06/22 23:55:24;;;;;;;;;;;;;;;17.19;100.00;101695.19;12865678;23;19950;-69
